sensor_id;sensor_type;location;lat;lon;timestamp;P1;durP1;ratioP1;P2;durP2;ratioP2
61638;SDS011;47544;52.484;4.658;2023-01-25T00:00:10;45.42;;;30.23;;
61638;SDS011;47544;52.484;4.658;2023-01-25T00:00:21;45.10;;;30.00;;
61638;SDS011;47544;52.484;4.658;2023-01-25T00:00:32;45.13;;;30.23;;
61638;SDS011;47544;52.484;4.658;2023-01-25T00:00:44;45.03;;;30.58;;
61638;SDS011;47544;52.484;4.658;2023-01-25T00:01:01;46.05;;;30.67;;
61638;SDS011;47544;52.484;4.658;2023-01-25T00:01:14;47.03;;;30.05;;
61638;SDS011;47544;52.484;4.658;2023-01-25T00:01:25;45.22;;;29.60;;
61638;SDS011;47544;52.484;4.658;2023-01-25T00:01:36;45.95;;;30.30;;
61638;SDS011;47544;52.484;4.658;2023-01-25T00:01:48;45.65;;;30.40;;
61638;SDS011;47544;52.484;4.658;2023-01-25T00:01:59;45.65;;;30.50;;
61638;SDS011;47544;52.484;4.658;2023-01-25T00:02:11;44.15;;;29.77;;
61638;SDS011;47544;52.484;4.658;2023-01-25T00:02:22;44.08;;;29.73;;
61638;SDS011;47544;52.484;4.658;2023-01-25T00:02:32;45.28;;;29.77;;
61638;SDS011;47544;52.484;4.658;2023-01-25T00:02:43;47.08;;;30.25;;
61638;SDS011;47544;52.484;4.658;2023-01-25T00:02:54;47.13;;;30.45;;
61638;SDS011;47544;52.484;4.658;2023-01-25T00:03:05;45.22;;;30.25;;
61638;SDS011;47544;52.484;4.658;2023-01-25T00:03:16;43.63;;;29.73;;
61638;SDS011;47544;52.484;4.658;2023-01-25T00:03:28;44.03;;;30.13;;
61638;SDS011;47544;52.484;4.658;2023-01-25T00:03:40;45.67;;;30.92;;
61638;SDS011;47544;52.484;4.658;2023-01-25T00:03:50;45.25;;;30.73;;
61638;SDS011;47544;52.484;4.658;2023-01-25T00:04:01;44.92;;;30.60;;
61638;SDS011;47544;52.484;4.658;2023-01-25T00:04:12;44.95;;;30.42;;
61638;SDS011;47544;52.484;4.658;2023-01-25T00:04:23;45.70;;;31.02;;
61638;SDS011;47544;52.484;4.658;2023-01-25T00:04:34;45.72;;;30.65;;
61638;SDS011;47544;52.484;4.658;2023-01-25T00:04:45;45.22;;;30.08;;
61638;SDS011;47544;52.484;4.658;2023-01-25T00:04:57;43.90;;;29.45;;
61638;SDS011;47544;52.484;4.658;2023-01-25T00:05:08;43.97;;;29.53;;
61638;SDS011;47544;52.484;4.658;2023-01-25T00:05:19;44.30;;;29.77;;
61638;SDS011;47544;52.484;4.658;2023-01-25T00:05:30;45.23;;;30.23;;
61638;SDS011;47544;52.484;4.658;2023-01-25T00:05:41;44.97;;;30.05;;
61638;SDS011;47544;52.484;4.658;2023-01-25T00:05:57;45.15;;;30.52;;
61638;SDS011;47544;52.484;4.658;2023-01-25T00:06:08;44.45;;;30.25;;
61638;SDS011;47544;52.484;4.658;2023-01-25T00:06:18;45.08;;;30.30;;
61638;SDS011;47544;52.484;4.658;2023-01-25T00:06:29;45.85;;;30.85;;
61638;SDS011;47544;52.484;4.658;2023-01-25T00:06:41;45.85;;;31.02;;
61638;SDS011;47544;52.484;4.658;2023-01-25T00:06:52;45.90;;;30.90;;
61638;SDS011;47544;52.484;4.658;2023-01-25T00:07:03;46.28;;;30.88;;
61638;SDS011;47544;52.484;4.658;2023-01-25T00:07:16;46.72;;;30.90;;
61638;SDS011;47544;52.484;4.658;2023-01-25T00:07:27;46.30;;;30.98;;
61638;SDS011;47544;52.484;4.658;2023-01-25T00:07:39;45.63;;;30.20;;
61638;SDS011;47544;52.484;4.658;2023-01-25T00:07:52;45.30;;;30.13;;
61638;SDS011;47544;52.484;4.658;2023-01-25T00:08:04;45.97;;;30.58;;
61638;SDS011;47544;52.484;4.658;2023-01-25T00:08:15;46.58;;;30.98;;
61638;SDS011;47544;52.484;4.658;2023-01-25T00:08:26;46.75;;;30.90;;
61638;SDS011;47544;52.484;4.658;2023-01-25T00:08:37;47.58;;;30.77;;
61638;SDS011;47544;52.484;4.658;2023-01-25T00:08:48;47.28;;;30.63;;
61638;SDS011;47544;52.484;4.658;2023-01-25T00:08:59;46.35;;;30.30;;
61638;SDS011;47544;52.484;4.658;2023-01-25T00:09:10;45.53;;;30.45;;
61638;SDS011;47544;52.484;4.658;2023-01-25T00:09:25;45.75;;;30.63;;
61638;SDS011;47544;52.484;4.658;2023-01-25T00:09:36;46.80;;;31.27;;
61638;SDS011;47544;52.484;4.658;2023-01-25T00:09:48;46.63;;;31.33;;
61638;SDS011;47544;52.484;4.658;2023-01-25T00:09:59;46.00;;;31.33;;
61638;SDS011;47544;52.484;4.658;2023-01-25T00:10:10;44.75;;;30.63;;
61638;SDS011;47544;52.484;4.658;2023-01-25T00:10:21;44.60;;;30.60;;
61638;SDS011;47544;52.484;4.658;2023-01-25T00:10:32;44.75;;;30.05;;
61638;SDS011;47544;52.484;4.658;2023-01-25T00:10:43;46.05;;;30.42;;
61638;SDS011;47544;52.484;4.658;2023-01-25T00:10:55;45.08;;;30.10;;
61638;SDS011;47544;52.484;4.658;2023-01-25T00:11:05;45.05;;;29.90;;
61638;SDS011;47544;52.484;4.658;2023-01-25T00:11:16;45.05;;;30.02;;
61638;SDS011;47544;52.484;4.658;2023-01-25T00:11:27;46.23;;;30.43;;
61638;SDS011;47544;52.484;4.658;2023-01-25T00:11:38;47.10;;;30.95;;
61638;SDS011;47544;52.484;4.658;2023-01-25T00:11:49;46.85;;;30.67;;
61638;SDS011;47544;52.484;4.658;2023-01-25T00:12:00;46.60;;;31.02;;
61638;SDS011;47544;52.484;4.658;2023-01-25T00:12:12;47.75;;;31.48;;
61638;SDS011;47544;52.484;4.658;2023-01-25T00:12:23;48.90;;;31.23;;
61638;SDS011;47544;52.484;4.658;2023-01-25T00:12:34;48.03;;;30.43;;
61638;SDS011;47544;52.484;4.658;2023-01-25T00:12:45;45.83;;;29.52;;
61638;SDS011;47544;52.484;4.658;2023-01-25T00:12:56;45.67;;;29.52;;
61638;SDS011;47544;52.484;4.658;2023-01-25T00:13:07;46.58;;;30.23;;
61638;SDS011;47544;52.484;4.658;2023-01-25T00:13:18;48.53;;;31.48;;
61638;SDS011;47544;52.484;4.658;2023-01-25T00:13:30;47.42;;;31.25;;
61638;SDS011;47544;52.484;4.658;2023-01-25T00:13:41;46.63;;;31.15;;
61638;SDS011;47544;52.484;4.658;2023-01-25T00:13:52;46.10;;;30.98;;
61638;SDS011;47544;52.484;4.658;2023-01-25T00:14:03;45.90;;;31.17;;
61638;SDS011;47544;52.484;4.658;2023-01-25T00:14:14;45.38;;;30.58;;
61638;SDS011;47544;52.484;4.658;2023-01-25T00:14:26;44.97;;;30.23;;
61638;SDS011;47544;52.484;4.658;2023-01-25T00:14:36;46.40;;;30.00;;
61638;SDS011;47544;52.484;4.658;2023-01-25T00:14:47;46.00;;;30.13;;
61638;SDS011;47544;52.484;4.658;2023-01-25T00:15:02;45.00;;;30.25;;
61638;SDS011;47544;52.484;4.658;2023-01-25T00:15:13;45.50;;;30.40;;
61638;SDS011;47544;52.484;4.658;2023-01-25T00:15:24;46.38;;;30.55;;
61638;SDS011;47544;52.484;4.658;2023-01-25T00:15:35;47.00;;;31.10;;
61638;SDS011;47544;52.484;4.658;2023-01-25T00:15:46;46.88;;;30.65;;
61638;SDS011;47544;52.484;4.658;2023-01-25T00:16:00;47.03;;;30.88;;
61638;SDS011;47544;52.484;4.658;2023-01-25T00:16:13;47.30;;;31.33;;
61638;SDS011;47544;52.484;4.658;2023-01-25T00:16:24;46.38;;;31.10;;
61638;SDS011;47544;52.484;4.658;2023-01-25T00:16:36;46.95;;;30.75;;
61638;SDS011;47544;52.484;4.658;2023-01-25T00:16:47;46.13;;;29.80;;
61638;SDS011;47544;52.484;4.658;2023-01-25T00:16:58;45.80;;;29.90;;
61638;SDS011;47544;52.484;4.658;2023-01-25T00:17:09;45.58;;;30.30;;
61638;SDS011;47544;52.484;4.658;2023-01-25T00:17:20;46.13;;;31.08;;
61638;SDS011;47544;52.484;4.658;2023-01-25T00:17:31;46.50;;;31.02;;
61638;SDS011;47544;52.484;4.658;2023-01-25T00:17:42;47.38;;;31.05;;
61638;SDS011;47544;52.484;4.658;2023-01-25T00:17:54;46.60;;;30.58;;
61638;SDS011;47544;52.484;4.658;2023-01-25T00:18:06;45.95;;;30.27;;
61638;SDS011;47544;52.484;4.658;2023-01-25T00:18:17;45.80;;;30.40;;
61638;SDS011;47544;52.484;4.658;2023-01-25T00:18:28;48.17;;;31.15;;
61638;SDS011;47544;52.484;4.658;2023-01-25T00:18:39;48.97;;;31.38;;
61638;SDS011;47544;52.484;4.658;2023-01-25T00:18:50;48.90;;;31.65;;
61638;SDS011;47544;52.484;4.658;2023-01-25T00:19:01;47.80;;;31.58;;
61638;SDS011;47544;52.484;4.658;2023-01-25T00:19:13;47.55;;;31.30;;
61638;SDS011;47544;52.484;4.658;2023-01-25T00:19:24;46.35;;;30.13;;
61638;SDS011;47544;52.484;4.658;2023-01-25T00:19:36;45.15;;;29.60;;
61638;SDS011;47544;52.484;4.658;2023-01-25T00:19:50;44.45;;;29.70;;
61638;SDS011;47544;52.484;4.658;2023-01-25T00:20:01;45.35;;;29.73;;
61638;SDS011;47544;52.484;4.658;2023-01-25T00:20:12;47.15;;;29.77;;
61638;SDS011;47544;52.484;4.658;2023-01-25T00:20:23;48.23;;;30.30;;
61638;SDS011;47544;52.484;4.658;2023-01-25T00:20:33;47.20;;;30.45;;
61638;SDS011;47544;52.484;4.658;2023-01-25T00:20:44;46.30;;;30.02;;
61638;SDS011;47544;52.484;4.658;2023-01-25T00:20:55;45.67;;;30.02;;
61638;SDS011;47544;52.484;4.658;2023-01-25T00:21:11;45.58;;;30.40;;
61638;SDS011;47544;52.484;4.658;2023-01-25T00:21:22;46.60;;;30.80;;
61638;SDS011;47544;52.484;4.658;2023-01-25T00:21:34;46.58;;;30.50;;
61638;SDS011;47544;52.484;4.658;2023-01-25T00:21:45;44.65;;;29.73;;
61638;SDS011;47544;52.484;4.658;2023-01-25T00:21:56;45.13;;;29.85;;
61638;SDS011;47544;52.484;4.658;2023-01-25T00:22:07;46.10;;;30.13;;
61638;SDS011;47544;52.484;4.658;2023-01-25T00:22:20;46.97;;;31.00;;
61638;SDS011;47544;52.484;4.658;2023-01-25T00:22:31;46.90;;;30.77;;
61638;SDS011;47544;52.484;4.658;2023-01-25T00:22:43;46.75;;;30.42;;
61638;SDS011;47544;52.484;4.658;2023-01-25T00:22:54;46.35;;;30.30;;
61638;SDS011;47544;52.484;4.658;2023-01-25T00:23:05;46.80;;;30.58;;
61638;SDS011;47544;52.484;4.658;2023-01-25T00:23:16;47.72;;;31.50;;
61638;SDS011;47544;52.484;4.658;2023-01-25T00:23:27;47.70;;;31.48;;
61638;SDS011;47544;52.484;4.658;2023-01-25T00:23:38;46.88;;;31.33;;
61638;SDS011;47544;52.484;4.658;2023-01-25T00:23:49;47.50;;;31.67;;
61638;SDS011;47544;52.484;4.658;2023-01-25T00:24:01;46.33;;;30.98;;
61638;SDS011;47544;52.484;4.658;2023-01-25T00:24:13;45.85;;;30.15;;
61638;SDS011;47544;52.484;4.658;2023-01-25T00:24:24;45.35;;;29.80;;
61638;SDS011;47544;52.484;4.658;2023-01-25T00:24:35;45.58;;;30.33;;
61638;SDS011;47544;52.484;4.658;2023-01-25T00:24:46;45.83;;;30.60;;
61638;SDS011;47544;52.484;4.658;2023-01-25T00:24:57;46.83;;;31.00;;
61638;SDS011;47544;52.484;4.658;2023-01-25T00:25:08;48.63;;;31.35;;
61638;SDS011;47544;52.484;4.658;2023-01-25T00:25:19;49.03;;;31.33;;
61638;SDS011;47544;52.484;4.658;2023-01-25T00:25:31;48.50;;;31.45;;
61638;SDS011;47544;52.484;4.658;2023-01-25T00:25:44;47.70;;;31.48;;
61638;SDS011;47544;52.484;4.658;2023-01-25T00:25:56;47.92;;;31.50;;
61638;SDS011;47544;52.484;4.658;2023-01-25T00:26:07;49.38;;;31.50;;
61638;SDS011;47544;52.484;4.658;2023-01-25T00:26:18;48.95;;;31.27;;
61638;SDS011;47544;52.484;4.658;2023-01-25T00:26:29;48.38;;;31.77;;
61638;SDS011;47544;52.484;4.658;2023-01-25T00:26:41;47.53;;;31.85;;
61638;SDS011;47544;52.484;4.658;2023-01-25T00:26:53;46.78;;;31.48;;
61638;SDS011;47544;52.484;4.658;2023-01-25T00:27:05;47.13;;;31.33;;
61638;SDS011;47544;52.484;4.658;2023-01-25T00:27:16;48.35;;;31.67;;
61638;SDS011;47544;52.484;4.658;2023-01-25T00:27:27;49.00;;;31.27;;
61638;SDS011;47544;52.484;4.658;2023-01-25T00:27:38;48.50;;;31.05;;
61638;SDS011;47544;52.484;4.658;2023-01-25T00:27:49;49.65;;;31.15;;
61638;SDS011;47544;52.484;4.658;2023-01-25T00:28:00;50.17;;;31.65;;
61638;SDS011;47544;52.484;4.658;2023-01-25T00:28:11;51.42;;;31.88;;
61638;SDS011;47544;52.484;4.658;2023-01-25T00:28:22;50.30;;;32.30;;
61638;SDS011;47544;52.484;4.658;2023-01-25T00:28:33;50.33;;;32.57;;
61638;SDS011;47544;52.484;4.658;2023-01-25T00:28:47;50.75;;;33.03;;
61638;SDS011;47544;52.484;4.658;2023-01-25T00:28:59;51.58;;;32.40;;
61638;SDS011;47544;52.484;4.658;2023-01-25T00:29:10;51.90;;;32.33;;
61638;SDS011;47544;52.484;4.658;2023-01-25T00:29:22;49.90;;;31.88;;
61638;SDS011;47544;52.484;4.658;2023-01-25T00:29:33;50.38;;;31.92;;
61638;SDS011;47544;52.484;4.658;2023-01-25T00:29:44;50.90;;;31.98;;
61638;SDS011;47544;52.484;4.658;2023-01-25T00:29:55;50.60;;;31.97;;
61638;SDS011;47544;52.484;4.658;2023-01-25T00:30:06;50.17;;;32.10;;
61638;SDS011;47544;52.484;4.658;2023-01-25T00:30:18;49.92;;;32.00;;
61638;SDS011;47544;52.484;4.658;2023-01-25T00:30:29;48.72;;;31.90;;
61638;SDS011;47544;52.484;4.658;2023-01-25T00:30:41;47.78;;;32.00;;
61638;SDS011;47544;52.484;4.658;2023-01-25T00:30:52;46.63;;;31.77;;
61638;SDS011;47544;52.484;4.658;2023-01-25T00:31:04;48.80;;;32.30;;
61638;SDS011;47544;52.484;4.658;2023-01-25T00:31:20;49.22;;;32.58;;
61638;SDS011;47544;52.484;4.658;2023-01-25T00:31:36;50.92;;;32.42;;
61638;SDS011;47544;52.484;4.658;2023-01-25T00:31:57;52.05;;;32.17;;
61638;SDS011;47544;52.484;4.658;2023-01-25T00:32:46;50.67;;;32.38;;
61638;SDS011;47544;52.484;4.658;2023-01-25T00:33:00;50.45;;;33.00;;
61638;SDS011;47544;52.484;4.658;2023-01-25T00:33:32;48.53;;;31.73;;
61638;SDS011;47544;52.484;4.658;2023-01-25T00:33:48;50.22;;;32.20;;
61638;SDS011;47544;52.484;4.658;2023-01-25T00:34:05;51.15;;;32.53;;
61638;SDS011;47544;52.484;4.658;2023-01-25T00:34:54;49.90;;;31.75;;
61638;SDS011;47544;52.484;4.658;2023-01-25T00:35:07;49.17;;;31.65;;
61638;SDS011;47544;52.484;4.658;2023-01-25T00:35:19;49.17;;;31.73;;
61638;SDS011;47544;52.484;4.658;2023-01-25T00:35:32;49.10;;;31.92;;
61638;SDS011;47544;52.484;4.658;2023-01-25T00:35:44;49.85;;;31.90;;
61638;SDS011;47544;52.484;4.658;2023-01-25T00:35:55;51.42;;;31.50;;
61638;SDS011;47544;52.484;4.658;2023-01-25T00:36:32;49.28;;;31.45;;
61638;SDS011;47544;52.484;4.658;2023-01-25T00:36:44;50.83;;;32.25;;
61638;SDS011;47544;52.484;4.658;2023-01-25T00:36:55;50.30;;;32.22;;
61638;SDS011;47544;52.484;4.658;2023-01-25T00:37:11;49.65;;;32.58;;
61638;SDS011;47544;52.484;4.658;2023-01-25T00:37:23;49.17;;;32.17;;
61638;SDS011;47544;52.484;4.658;2023-01-25T00:37:36;47.75;;;31.30;;
61638;SDS011;47544;52.484;4.658;2023-01-25T00:37:47;47.97;;;31.45;;
61638;SDS011;47544;52.484;4.658;2023-01-25T00:38:00;49.58;;;32.30;;
61638;SDS011;47544;52.484;4.658;2023-01-25T00:38:16;50.35;;;32.28;;
61638;SDS011;47544;52.484;4.658;2023-01-25T00:38:34;51.60;;;32.38;;
61638;SDS011;47544;52.484;4.658;2023-01-25T00:38:45;52.85;;;32.35;;
61638;SDS011;47544;52.484;4.658;2023-01-25T00:38:57;52.67;;;32.42;;
61638;SDS011;47544;52.484;4.658;2023-01-25T00:39:09;53.50;;;33.17;;
61638;SDS011;47544;52.484;4.658;2023-01-25T00:39:22;52.15;;;33.38;;
61638;SDS011;47544;52.484;4.658;2023-01-25T00:39:34;51.03;;;32.88;;
61638;SDS011;47544;52.484;4.658;2023-01-25T00:39:45;50.90;;;32.78;;
61638;SDS011;47544;52.484;4.658;2023-01-25T00:39:55;50.55;;;33.13;;
61638;SDS011;47544;52.484;4.658;2023-01-25T00:40:08;49.90;;;32.95;;
61638;SDS011;47544;52.484;4.658;2023-01-25T00:40:19;48.58;;;32.55;;
61638;SDS011;47544;52.484;4.658;2023-01-25T00:40:31;49.85;;;32.85;;
61638;SDS011;47544;52.484;4.658;2023-01-25T00:40:42;49.60;;;32.47;;
61638;SDS011;47544;52.484;4.658;2023-01-25T00:40:53;50.28;;;32.63;;
61638;SDS011;47544;52.484;4.658;2023-01-25T00:41:04;50.88;;;32.50;;
61638;SDS011;47544;52.484;4.658;2023-01-25T00:41:15;50.20;;;32.20;;
61638;SDS011;47544;52.484;4.658;2023-01-25T00:41:26;48.83;;;31.67;;
61638;SDS011;47544;52.484;4.658;2023-01-25T00:41:36;47.78;;;31.48;;
61638;SDS011;47544;52.484;4.658;2023-01-25T00:41:47;48.63;;;31.73;;
61638;SDS011;47544;52.484;4.658;2023-01-25T00:41:58;48.88;;;31.73;;
61638;SDS011;47544;52.484;4.658;2023-01-25T00:42:09;49.55;;;31.95;;
61638;SDS011;47544;52.484;4.658;2023-01-25T00:42:21;50.78;;;32.65;;
61638;SDS011;47544;52.484;4.658;2023-01-25T00:42:35;51.60;;;32.67;;
61638;SDS011;47544;52.484;4.658;2023-01-25T00:42:46;51.72;;;32.85;;
61638;SDS011;47544;52.484;4.658;2023-01-25T00:42:57;51.38;;;32.60;;
61638;SDS011;47544;52.484;4.658;2023-01-25T00:43:10;50.85;;;32.55;;
61638;SDS011;47544;52.484;4.658;2023-01-25T00:43:21;50.23;;;32.50;;
61638;SDS011;47544;52.484;4.658;2023-01-25T00:43:32;51.03;;;32.10;;
61638;SDS011;47544;52.484;4.658;2023-01-25T00:43:43;50.88;;;32.22;;
61638;SDS011;47544;52.484;4.658;2023-01-25T00:43:53;51.10;;;31.73;;
61638;SDS011;47544;52.484;4.658;2023-01-25T00:44:08;49.03;;;31.27;;
61638;SDS011;47544;52.484;4.658;2023-01-25T00:44:19;49.30;;;31.58;;
61638;SDS011;47544;52.484;4.658;2023-01-25T00:44:31;48.38;;;31.55;;
61638;SDS011;47544;52.484;4.658;2023-01-25T00:44:42;48.80;;;31.13;;
61638;SDS011;47544;52.484;4.658;2023-01-25T00:44:53;49.38;;;31.08;;
61638;SDS011;47544;52.484;4.658;2023-01-25T00:45:04;50.00;;;31.33;;
61638;SDS011;47544;52.484;4.658;2023-01-25T00:45:15;48.33;;;31.08;;
61638;SDS011;47544;52.484;4.658;2023-01-25T00:45:27;48.97;;;31.10;;
61638;SDS011;47544;52.484;4.658;2023-01-25T00:45:38;49.08;;;31.45;;
61638;SDS011;47544;52.484;4.658;2023-01-25T00:45:49;48.47;;;31.45;;
61638;SDS011;47544;52.484;4.658;2023-01-25T00:46:00;48.55;;;31.20;;
61638;SDS011;47544;52.484;4.658;2023-01-25T00:46:11;47.13;;;30.40;;
61638;SDS011;47544;52.484;4.658;2023-01-25T00:46:26;46.33;;;29.75;;
61638;SDS011;47544;52.484;4.658;2023-01-25T00:46:37;45.95;;;29.90;;
61638;SDS011;47544;52.484;4.658;2023-01-25T00:46:48;46.05;;;30.00;;
61638;SDS011;47544;52.484;4.658;2023-01-25T00:46:59;46.25;;;30.05;;
61638;SDS011;47544;52.484;4.658;2023-01-25T00:47:10;46.20;;;29.55;;
61638;SDS011;47544;52.484;4.658;2023-01-25T00:47:21;47.17;;;29.33;;
61638;SDS011;47544;52.484;4.658;2023-01-25T00:47:33;46.65;;;29.35;;
61638;SDS011;47544;52.484;4.658;2023-01-25T00:47:44;46.75;;;29.88;;
61638;SDS011;47544;52.484;4.658;2023-01-25T00:47:55;46.17;;;29.90;;
61638;SDS011;47544;52.484;4.658;2023-01-25T00:48:06;46.08;;;30.50;;
61638;SDS011;47544;52.484;4.658;2023-01-25T00:48:18;46.25;;;31.10;;
61638;SDS011;47544;52.484;4.658;2023-01-25T00:48:29;46.10;;;31.30;;
61638;SDS011;47544;52.484;4.658;2023-01-25T00:48:40;46.30;;;30.55;;
61638;SDS011;47544;52.484;4.658;2023-01-25T00:48:51;47.10;;;29.77;;
61638;SDS011;47544;52.484;4.658;2023-01-25T00:49:03;47.58;;;30.05;;
61638;SDS011;47544;52.484;4.658;2023-01-25T00:49:18;47.88;;;30.60;;
61638;SDS011;47544;52.484;4.658;2023-01-25T00:49:29;48.35;;;30.60;;
61638;SDS011;47544;52.484;4.658;2023-01-25T00:49:41;48.00;;;30.38;;
61638;SDS011;47544;52.484;4.658;2023-01-25T00:49:53;46.85;;;30.05;;
61638;SDS011;47544;52.484;4.658;2023-01-25T00:50:04;45.55;;;29.63;;
61638;SDS011;47544;52.484;4.658;2023-01-25T00:50:17;46.75;;;30.10;;
61638;SDS011;47544;52.484;4.658;2023-01-25T00:50:28;46.20;;;30.27;;
61638;SDS011;47544;52.484;4.658;2023-01-25T00:50:40;46.35;;;30.15;;
61638;SDS011;47544;52.484;4.658;2023-01-25T00:50:51;46.17;;;29.75;;
61638;SDS011;47544;52.484;4.658;2023-01-25T00:51:04;45.63;;;29.45;;
61638;SDS011;47544;52.484;4.658;2023-01-25T00:51:16;46.08;;;30.02;;
61638;SDS011;47544;52.484;4.658;2023-01-25T00:51:27;45.75;;;30.05;;
61638;SDS011;47544;52.484;4.658;2023-01-25T00:51:38;46.08;;;29.83;;
61638;SDS011;47544;52.484;4.658;2023-01-25T00:51:49;45.00;;;28.85;;
61638;SDS011;47544;52.484;4.658;2023-01-25T00:52:01;43.58;;;26.90;;
61638;SDS011;47544;52.484;4.658;2023-01-25T00:52:12;42.97;;;26.00;;
61638;SDS011;47544;52.484;4.658;2023-01-25T00:52:23;44.55;;;27.60;;
61638;SDS011;47544;52.484;4.658;2023-01-25T00:52:35;45.95;;;28.70;;
61638;SDS011;47544;52.484;4.658;2023-01-25T00:52:47;45.88;;;28.95;;
61638;SDS011;47544;52.484;4.658;2023-01-25T00:52:57;45.42;;;28.90;;
61638;SDS011;47544;52.484;4.658;2023-01-25T00:53:09;43.47;;;27.92;;
61638;SDS011;47544;52.484;4.658;2023-01-25T00:53:20;43.22;;;27.00;;
61638;SDS011;47544;52.484;4.658;2023-01-25T00:53:31;45.28;;;28.08;;
61638;SDS011;47544;52.484;4.658;2023-01-25T00:53:42;46.55;;;29.15;;
61638;SDS011;47544;52.484;4.658;2023-01-25T00:53:53;47.30;;;30.08;;
61638;SDS011;47544;52.484;4.658;2023-01-25T00:54:04;45.83;;;29.67;;
61638;SDS011;47544;52.484;4.658;2023-01-25T00:54:15;46.10;;;29.27;;
61638;SDS011;47544;52.484;4.658;2023-01-25T00:54:26;46.60;;;29.35;;
61638;SDS011;47544;52.484;4.658;2023-01-25T00:54:37;46.22;;;29.15;;
61638;SDS011;47544;52.484;4.658;2023-01-25T00:54:49;45.88;;;29.88;;
61638;SDS011;47544;52.484;4.658;2023-01-25T00:55:00;47.03;;;29.95;;
61638;SDS011;47544;52.484;4.658;2023-01-25T00:55:10;46.20;;;29.52;;
61638;SDS011;47544;52.484;4.658;2023-01-25T00:55:21;44.95;;;29.38;;
61638;SDS011;47544;52.484;4.658;2023-01-25T00:55:32;45.92;;;29.65;;
61638;SDS011;47544;52.484;4.658;2023-01-25T00:55:50;47.72;;;29.77;;
61638;SDS011;47544;52.484;4.658;2023-01-25T00:56:00;46.20;;;28.67;;
61638;SDS011;47544;52.484;4.658;2023-01-25T00:56:11;46.10;;;29.13;;
61638;SDS011;47544;52.484;4.658;2023-01-25T00:56:22;46.60;;;29.77;;
61638;SDS011;47544;52.484;4.658;2023-01-25T00:56:33;46.97;;;30.55;;
61638;SDS011;47544;52.484;4.658;2023-01-25T00:56:44;46.88;;;30.90;;
61638;SDS011;47544;52.484;4.658;2023-01-25T00:56:55;46.78;;;30.98;;
61638;SDS011;47544;52.484;4.658;2023-01-25T00:57:06;46.95;;;30.35;;
61638;SDS011;47544;52.484;4.658;2023-01-25T00:57:19;47.05;;;29.85;;
61638;SDS011;47544;52.484;4.658;2023-01-25T00:57:30;47.03;;;29.90;;
61638;SDS011;47544;52.484;4.658;2023-01-25T00:57:41;47.22;;;29.98;;
61638;SDS011;47544;52.484;4.658;2023-01-25T00:57:52;46.20;;;29.70;;
61638;SDS011;47544;52.484;4.658;2023-01-25T00:58:03;45.95;;;29.75;;
61638;SDS011;47544;52.484;4.658;2023-01-25T00:58:13;46.25;;;29.95;;
61638;SDS011;47544;52.484;4.658;2023-01-25T00:58:24;48.65;;;30.88;;
61638;SDS011;47544;52.484;4.658;2023-01-25T00:58:35;48.55;;;31.27;;
61638;SDS011;47544;52.484;4.658;2023-01-25T00:58:47;47.63;;;31.20;;
61638;SDS011;47544;52.484;4.658;2023-01-25T00:58:58;46.50;;;30.67;;
61638;SDS011;47544;52.484;4.658;2023-01-25T00:59:09;47.80;;;30.58;;
61638;SDS011;47544;52.484;4.658;2023-01-25T00:59:20;46.78;;;29.75;;
61638;SDS011;47544;52.484;4.658;2023-01-25T00:59:32;48.17;;;29.90;;
61638;SDS011;47544;52.484;4.658;2023-01-25T00:59:42;49.47;;;30.57;;
61638;SDS011;47544;52.484;4.658;2023-01-25T00:59:54;49.90;;;31.58;;
61638;SDS011;47544;52.484;4.658;2023-01-25T01:00:05;48.47;;;31.40;;
61638;SDS011;47544;52.484;4.658;2023-01-25T01:00:17;48.88;;;31.63;;
61638;SDS011;47544;52.484;4.658;2023-01-25T01:00:28;49.58;;;31.40;;
61638;SDS011;47544;52.484;4.658;2023-01-25T01:00:39;49.85;;;31.75;;
61638;SDS011;47544;52.484;4.658;2023-01-25T01:00:50;48.55;;;31.40;;
61638;SDS011;47544;52.484;4.658;2023-01-25T01:01:02;48.58;;;31.70;;
61638;SDS011;47544;52.484;4.658;2023-01-25T01:01:13;47.92;;;31.52;;
61638;SDS011;47544;52.484;4.658;2023-01-25T01:01:24;47.60;;;31.02;;
61638;SDS011;47544;52.484;4.658;2023-01-25T01:01:37;48.70;;;31.25;;
61638;SDS011;47544;52.484;4.658;2023-01-25T01:01:48;49.63;;;31.83;;
61638;SDS011;47544;52.484;4.658;2023-01-25T01:01:59;49.60;;;32.10;;
61638;SDS011;47544;52.484;4.658;2023-01-25T01:02:11;49.28;;;30.83;;
61638;SDS011;47544;52.484;4.658;2023-01-25T01:02:22;49.75;;;30.13;;
61638;SDS011;47544;52.484;4.658;2023-01-25T01:02:33;48.85;;;28.25;;
61638;SDS011;47544;52.484;4.658;2023-01-25T01:02:44;48.05;;;27.88;;
61638;SDS011;47544;52.484;4.658;2023-01-25T01:02:54;47.17;;;27.85;;
61638;SDS011;47544;52.484;4.658;2023-01-25T01:03:05;46.33;;;28.42;;
61638;SDS011;47544;52.484;4.658;2023-01-25T01:03:16;47.65;;;29.48;;
61638;SDS011;47544;52.484;4.658;2023-01-25T01:03:27;47.50;;;30.02;;
61638;SDS011;47544;52.484;4.658;2023-01-25T01:03:39;47.03;;;30.25;;
61638;SDS011;47544;52.484;4.658;2023-01-25T01:03:50;47.37;;;30.20;;
61638;SDS011;47544;52.484;4.658;2023-01-25T01:04:01;48.53;;;30.15;;
61638;SDS011;47544;52.484;4.658;2023-01-25T01:04:12;50.35;;;29.92;;
61638;SDS011;47544;52.484;4.658;2023-01-25T01:04:23;49.35;;;29.65;;
61638;SDS011;47544;52.484;4.658;2023-01-25T01:04:34;49.08;;;30.08;;
61638;SDS011;47544;52.484;4.658;2023-01-25T01:04:45;48.40;;;29.90;;
61638;SDS011;47544;52.484;4.658;2023-01-25T01:04:57;48.20;;;29.80;;
61638;SDS011;47544;52.484;4.658;2023-01-25T01:05:08;48.13;;;30.52;;
61638;SDS011;47544;52.484;4.658;2023-01-25T01:05:19;48.58;;;31.55;;
61638;SDS011;47544;52.484;4.658;2023-01-25T01:05:30;49.23;;;32.10;;
61638;SDS011;47544;52.484;4.658;2023-01-25T01:05:41;50.70;;;32.50;;
61638;SDS011;47544;52.484;4.658;2023-01-25T01:05:57;51.45;;;32.63;;
61638;SDS011;47544;52.484;4.658;2023-01-25T01:06:09;49.90;;;31.50;;
61638;SDS011;47544;52.484;4.658;2023-01-25T01:06:20;50.05;;;31.65;;
61638;SDS011;47544;52.484;4.658;2023-01-25T01:06:33;50.72;;;31.85;;
61638;SDS011;47544;52.484;4.658;2023-01-25T01:06:45;50.30;;;31.60;;
61638;SDS011;47544;52.484;4.658;2023-01-25T01:06:56;50.10;;;31.92;;
61638;SDS011;47544;52.484;4.658;2023-01-25T01:07:07;49.75;;;31.77;;
61638;SDS011;47544;52.484;4.658;2023-01-25T01:07:18;49.53;;;31.65;;
61638;SDS011;47544;52.484;4.658;2023-01-25T01:07:29;49.47;;;31.25;;
61638;SDS011;47544;52.484;4.658;2023-01-25T01:07:41;49.65;;;31.48;;
61638;SDS011;47544;52.484;4.658;2023-01-25T01:07:53;50.70;;;32.18;;
61638;SDS011;47544;52.484;4.658;2023-01-25T01:08:05;50.55;;;32.22;;
61638;SDS011;47544;52.484;4.658;2023-01-25T01:08:16;50.88;;;31.90;;
61638;SDS011;47544;52.484;4.658;2023-01-25T01:08:27;49.83;;;31.30;;
61638;SDS011;47544;52.484;4.658;2023-01-25T01:08:38;50.97;;;31.77;;
61638;SDS011;47544;52.484;4.658;2023-01-25T01:08:50;51.28;;;32.45;;
61638;SDS011;47544;52.484;4.658;2023-01-25T01:09:00;52.70;;;32.78;;
61638;SDS011;47544;52.484;4.658;2023-01-25T01:09:12;53.40;;;32.65;;
61638;SDS011;47544;52.484;4.658;2023-01-25T01:09:24;53.30;;;32.42;;
61638;SDS011;47544;52.484;4.658;2023-01-25T01:09:37;49.50;;;31.67;;
61638;SDS011;47544;52.484;4.658;2023-01-25T01:09:48;49.05;;;31.50;;